Etusivu
METAR-TAF:

METAR-TAF

Lentoasemat :

Koror, Babeldaob, Palau

Leveyspiiri: 07-22N, Pituuspiiri: 134-32E, korkeus merenpinnasta: 54 m

Tämänhetkinen sää

Tämä raportti tehtiin 17 tuntia ja 53 minuuttia sitten, kello 14.50 UTC
Tuuli 4 kn etelästä/kaakosta
Lämpötila 26°C
Kosteus 84%
Ilmanpaine 1011 hPa
Näkyvyys: 24.1 km
Hajanaisia pilviä 1600 ft:n korkeudessa
Hajonneita pilviä 30000 ft:n korkeudessa

METAR: PTRO 201450Z 15004KT 15SM SCT016 BKN300 26/23 A2984

Aika: 17:43 (08:43 UTC)

Sääennuste

Tämä raportti tehtiin 21 tuntia ja 5 minuuttia sitten, kello 11.38 UTC
Ennuste voimassa 20. päivästä klo 12 UTC - 21. päivään klo 12 UTC
Tuuli 5 kn idästä/koillisesta
Näkyvyys: 10 km
Muutamia pilviä 1800 ft:n korkeudessa
Hajanaisia pilviä 12000 ft:n korkeudessa

TAF: PTRO 201138Z 2012/2112 07005KT P6SM FEW018 SCT120

Säähavainnot ja -ennusteet yli 4000 lentoasemalta (METAR- ja TAF-raportit).

Käytössä olevat sääasemat on merkitty karttaan keltaisilla ja punaisilla pisteillä.

Aseta hiiri pisteen päälle nähdäksesi sääaseman nimen.

Klikkaa sitten nähdäksesi säähavainnot ja -ennusteet.

Kartan vaihtaminen: klikkaa mustalla rastilla varustettuja vihreitä pisteitä, niin voit zoomata sisään; viivalla varustettua vihreää pistettä, niin voit zoomata ulos tai vihreitä nuolia, niin pääset viereisille kartoille.


METAR-TAF: